WetterOnline ( https://www.wetteronline.de )

Wetter aktuell Linz

Aktuelles Wetter: Nürburg-Barweiler (488m)

6-stündlich | Neueste Meldungen
Ortszeit Temperatur Wetter
Do, 21.11. 13:00 2.7° C bewölkt
Do, 21.11. 7:00 -0.8° C bewölkt
Do, 21.11. 1:00 -1.1° C bedeckt
Mi, 20.11. 19:00 -0.2° C leicht bewölkt
Mi, 20.11. 13:00 2.5° C wolkig
Mi, 20.11. 7:00 0.4° C bedeckt
Mi, 20.11. 1:00 -2.5° C bedeckt
Di, 19.11. 19:00 0.9° C wolkenlos
Ortszeit Temperatur Wetter
Do, 21.11. 14:00 3.0° C bewölkt
Do, 21.11. 13:50 3.0° C bewölkt
Do, 21.11. 13:40 3.1° C bewölkt
Do, 21.11. 13:30 3.8° C bewölkt
Do, 21.11. 13:20 3.8° C bewölkt
Do, 21.11. 13:10 3.8° C bewölkt
Do, 21.11. 13:00 2.7° C bewölkt
Do, 21.11. 12:30 2.5° C bewölkt
Do, 21.11. 12:00 2.5° C wolkig
Do, 21.11. 11:30 1.7° C bedeckt
Do, 21.11. 11:00 1.2° C bedeckt
Ortszeit Relative Feuchte Sichtweite
Do, 21.11. 13:00 90% 26 km
Do, 21.11. 7:00 95% -
Do, 21.11. 1:00 96% 17 km
Mi, 20.11. 19:00 88% 45 km
Mi, 20.11. 13:00 80% 70 km
Mi, 20.11. 7:00 92% 40 km
Mi, 20.11. 1:00 99% 15 km
Di, 19.11. 19:00 95% 35 km
Ortszeit Relative Feuchte Sichtweite
Do, 21.11. 14:00 90% 20 km
Do, 21.11. 13:50 90% -
Do, 21.11. 13:40 89% -
Do, 21.11. 13:30 86% 28 km
Do, 21.11. 13:20 86% -
Do, 21.11. 13:10 84% -
Do, 21.11. 13:00 90% 26 km
Do, 21.11. 12:30 89% 24 km
Do, 21.11. 12:00 86% -
Do, 21.11. 11:30 88% -
Do, 21.11. 11:00 90% -
Ortszeit Niederschlagsmenge Niederschlagsart
Do, 21.11. 13:00 0.0 l/m2 in 6 Std. -
Do, 21.11. 7:00 0.0 l/m2 in 12 Std. -
Do, 21.11. 1:00 0.0 l/m2 in 6 Std. -
Mi, 20.11. 19:00 0.0 l/m2 in 12 Std. -
Mi, 20.11. 13:00 0.0 l/m2 in 6 Std. -
Mi, 20.11. 7:00 0.0 l/m2 in 12 Std. -
Mi, 20.11. 1:00 0.0 l/m2 in 6 Std. -
Di, 19.11. 19:00 0.1 l/m2 in 12 Std. Regen
Ortszeit Niederschlagsmenge Niederschlagsart
Do, 21.11. 14:00 0.0 l/m2 in 1 Std. -
Do, 21.11. 13:50 keine Meldung -
Do, 21.11. 13:40 keine Meldung -
Do, 21.11. 13:30 0.0 l/m2 in 1 Std. -
Do, 21.11. 13:20 keine Meldung -
Do, 21.11. 13:10 keine Meldung -
Do, 21.11. 13:00 0.0 l/m2 in 1 Std. -
Do, 21.11. 12:30 0.0 l/m2 in 1 Std. -
Do, 21.11. 12:00 0.0 l/m2 in 1 Std. -
Do, 21.11. 11:30 0.0 l/m2 in 1 Std. -
Do, 21.11. 11:00 0.0 l/m2 in 1 Std. -
Ortszeit Stärke Spitze Richtung
km/h Bft. km/h Grad Sektor
Do, 21.11. 13:00 7 2 30 200° S
Do, 21.11. 7:00 7 2 22 150° SO
Do, 21.11. 1:00 7 2 29 120° SO
Mi, 20.11. 19:00 6 1 28 100° O
Mi, 20.11. 13:00 13 3 26 100° O
Mi, 20.11. 7:00 6 1 15 110° O
Mi, 20.11. 1:00 2 1 9 210° SW
Di, 19.11. 19:00 7 2 22 210° SW
Ortszeit Stärke Spitze Richtung
km/h Bft. km/h Grad Sektor
Do, 21.11. 14:00 11 2 18 180° S
Do, 21.11. 13:50 11 2 - 180° S
Do, 21.11. 13:40 11 2 - 190° S
Do, 21.11. 13:30 7 2 18 200° S
Do, 21.11. 13:20 7 2 - 200° S
Do, 21.11. 13:10 7 2 - 200° S
Do, 21.11. 13:00 7 2 17 200° S
Do, 21.11. 12:30 7 2 15 190° S
Do, 21.11. 12:00 9 2 19 190° S
Do, 21.11. 11:30 11 2 18 200° S
Do, 21.11. 11:00 11 2 22 180° S
Ortszeit Untergrenze Bedeckung Gattung
total tief tief mittel hoch
Do, 21.11. 13:00 150 m 8/8 7/8 - - -
Do, 21.11. 7:00 150 m 7/8 7/8 - - -
Do, 21.11. 1:00 120 m 8/8 8/8 - - -
Mi, 20.11. 19:00 360 m 2/8 2/8 - - -
Mi, 20.11. 13:00 420 m 6/8 6/8 - - -
Mi, 20.11. 7:00 360 m 8/8 8/8 - - -
Mi, 20.11. 1:00 450 m 8/8 8/8 - - -
Di, 19.11. 19:00 - 0/8 0/8 - - -
Ortszeit Bedeckungsgrad in Achtel und Wolkenuntergrenze
Do, 21.11. 14:00 6(180m) 8(4200m) 8(5100m)
Do, 21.11. 13:50 6(180m) 8(4200m) 8(5100m)
Do, 21.11. 13:40 4(180m) 8(5100m) 8(8100m)
Do, 21.11. 13:30 4(180m) 6(3900m) 8(5100m)
Do, 21.11. 13:20 4(180m) 6(3900m) 8(5100m)
Do, 21.11. 13:10 5(150m) 7(3900m) 8(5100m)
Do, 21.11. 13:00 7(150m) 7(4200m) 8(5100m)
Do, 21.11. 12:30 7(180m) 7(4200m) 8(5100m)
Do, 21.11. 12:00 2(210m) 8(4200m) 8(5400m)
Do, 21.11. 11:30 8(4200m) 8(5100m) 8(9000m)
Do, 21.11. 11:00 8(4200m) 8(6000m)
Ortszeit Luftdruck NN (hPa) Tendenz (hPa in 3 Std.)
Do, 21.11. 13:00 1009 - 1,1
Do, 21.11. 7:00 1011 - 0,5
Do, 21.11. 1:00 1013 - 1,1
Mi, 20.11. 19:00 1016 - 0,8
Mi, 20.11. 13:00 1017 - 1,5
Mi, 20.11. 7:00 1020 - 0,3
Mi, 20.11. 1:00 1021 0,0
Di, 19.11. 19:00 1020 + 0,8
Ortszeit Luftdruck NN (hPa) Tendenz (hPa in 3 Std.)
Do, 21.11. 14:00 1008 - 1,4
Do, 21.11. 13:50 1008 keine Meldung
Do, 21.11. 13:40 1008 keine Meldung
Do, 21.11. 13:30 1008 - 1,4
Do, 21.11. 13:20 1008 keine Meldung
Do, 21.11. 13:10 1008 keine Meldung
Do, 21.11. 13:00 1009 - 1,1
Do, 21.11. 12:30 1009 - 0,7
Do, 21.11. 12:00 1010 - 0,5
Do, 21.11. 11:30 1010 - 0,6
Do, 21.11. 11:00 1010 - 0,6
Ortszeit Schneehöhe (cm)
Do, 21.11. 13:00 0
Do, 21.11. 7:00 0
Do, 21.11. 1:00 0
Mi, 20.11. 19:00 0
Mi, 20.11. 13:00 0
Mi, 20.11. 7:00 0
Mi, 20.11. 1:00 0
Di, 19.11. 19:00 0
Ortszeit Schneehöhe (cm)
Do, 21.11. 14:00 0
Do, 21.11. 13:50 0
Do, 21.11. 13:40 0
Do, 21.11. 13:30 0
Do, 21.11. 13:20 0
Do, 21.11. 13:10 0
Do, 21.11. 13:00 0
Do, 21.11. 12:30 0
Do, 21.11. 12:00 0
Do, 21.11. 11:30 0
Do, 21.11. 11:00 0
Link zu dieser Seite / Seite empfehlen

Das Wetter in ...